Terminal Aerodrome Forecast
Issued by NWS

Home | Current Version | Previous Version | Text Only | Print | Product List | Glossary On
Versions: 1 2 3 4 5 6 7 8 9 10 11 12 13 14 15 16 17 18 19 20 21 22
000
FTUS46 KEKA 181720
TAFCEC
TAF
KCEC 181720Z 1818/1918 VRB06KT P6SM VCSH FEW070 SCT250
     FM182100 19008KT P6SM SCT250
     FM190000 VRB05KT P6SM BKN120
     FM190600 00000KT P6SM BKN050=

USA.gov is the U.S. government's official web portal to all federal, state and local government web resources and services.